Time;durP1;ratioP1;P1;durP2;ratioP2;P2;SDS_P1;SDS_P2;PMS_P1;PMS_P2;Temp;Humidity;BMP_temperature;BMP_pressure;BME280_temperature;BME280_humidity;BME280_pressure;Samples;Min_cycle;Max_cycle;Signal;HPM_P1;HPM_P2
2021/07/20 00:01:12;;;;;;;6.47;4.18;;;22.00;57.80;;;;;;4958015;28;20042;-82
2021/07/20 00:03:38;;;;;;;6.53;4.32;;;21.90;57.70;;;;;;4973538;28;20174;-82
2021/07/20 00:06:04;;;;;;;5.50;3.83;;;21.90;57.80;;;;;;4958285;28;20439;-81
2021/07/20 00:08:30;;;;;;;6.47;4.20;;;21.90;57.80;;;;;;4958109;28;20043;-82
2021/07/20 00:10:58;;;;;;;6.00;4.00;;;21.80;57.80;;;;;;4942200;28;20459;-82
2021/07/20 00:13:24;;;;;;;6.25;4.13;;;21.80;57.90;;;;;;4973928;28;20039;-83
2021/07/20 00:15:55;;;;;;;7.00;4.32;;;21.70;57.90;;;;;;4958248;28;20031;-82
2021/07/20 00:18:23;;;;;;;5.90;4.00;;;21.70;57.90;;;;;;4957875;28;20086;-82
2021/07/20 00:20:49;;;;;;;6.20;4.30;;;21.70;58.00;;;;;;4957370;28;20031;-82
2021/07/20 00:23:17;;;;;;;5.85;3.80;;;21.60;58.00;;;;;;4958045;28;20058;-82
2021/07/20 00:25:43;;;;;;;6.95;4.18;;;21.60;58.10;;;;;;4973737;28;20506;-82
2021/07/20 00:28:09;;;;;;;5.50;3.65;;;21.60;58.40;;;;;;4957629;28;20031;-82
2021/07/20 00:30:34;;;;;;;6.07;4.10;;;21.60;58.10;;;;;;4941143;28;20027;-82
2021/07/20 00:33:00;;;;;;;6.07;3.97;;;21.50;58.10;;;;;;4957591;28;20058;-82
2021/07/20 00:35:26;;;;;;;5.45;3.90;;;21.50;58.20;;;;;;4977456;28;20027;-82
2021/07/20 00:37:52;;;;;;;5.60;3.92;;;21.40;58.20;;;;;;4977529;28;20128;-82
2021/07/20 00:40:19;;;;;;;5.78;3.97;;;21.40;58.20;;;;;;4960521;28;20156;-82
2021/07/20 00:42:46;;;;;;;6.25;4.40;;;21.40;58.30;;;;;;4960891;28;20027;-82
2021/07/20 00:45:15;;;;;;;5.97;4.10;;;21.40;58.30;;;;;;4961052;28;20112;-82
2021/07/20 00:47:41;;;;;;;6.28;4.07;;;21.40;58.40;;;;;;4976319;28;20533;-82
2021/07/20 00:50:12;;;;;;;6.05;3.97;;;21.30;58.40;;;;;;4978555;28;20039;-81
2021/07/20 00:52:41;;;;;;;6.00;3.88;;;21.30;58.50;;;;;;4960679;28;20473;-83
2021/07/20 00:55:09;;;;;;;5.88;3.75;;;21.20;58.40;;;;;;4961302;28;20030;-83
2021/07/20 00:57:35;;;;;;;5.80;3.88;;;21.20;58.50;;;;;;4961201;28;20027;-83
2021/07/20 01:00:03;;;;;;;5.57;3.70;;;21.20;58.50;;;;;;4960580;28;20057;-82
2021/07/20 01:02:29;;;;;;;6.07;3.97;;;21.20;58.60;;;;;;4976303;28;20053;-83
2021/07/20 01:04:56;;;;;;;6.38;3.72;;;21.10;58.60;;;;;;4961322;28;20138;-82
2021/07/20 01:07:26;;;;;;;5.68;3.85;;;21.10;58.60;;;;;;4961112;28;20202;-82
2021/07/20 01:09:55;;;;;;;6.25;3.75;;;21.10;58.70;;;;;;4960620;28;20093;-82
2021/07/20 01:12:25;;;;;;;5.78;3.83;;;21.10;58.70;;;;;;4976541;28;20061;-82
2021/07/20 01:14:52;;;;;;;6.57;4.03;;;21.00;58.70;;;;;;4959998;28;20491;-81
2021/07/20 01:17:19;;;;;;;6.75;4.18;;;21.00;58.80;;;;;;4959860;28;20035;-82
2021/07/20 01:19:54;;;;;;;5.55;3.95;;;21.00;58.80;;;;;;4960104;28;20387;-81
2021/07/20 01:22:30;;;;;;;6.13;3.90;;;20.90;58.90;;;;;;4959989;28;20062;-82
2021/07/20 01:24:58;;;;;;;7.25;4.53;;;20.90;58.90;;;;;;4976409;28;20041;-82
2021/07/20 01:27:24;;;;;;;6.28;4.07;;;20.90;58.90;;;;;;4959625;28;20034;-81
2021/07/20 01:29:53;;;;;;;5.93;4.00;;;20.80;59.00;;;;;;4960351;28;20073;-82
2021/07/20 01:32:21;;;;;;;6.45;4.20;;;20.80;58.90;;;;;;4976081;28;20054;-81
2021/07/20 01:34:49;;;;;;;5.93;3.90;;;20.80;59.00;;;;;;4959833;28;20038;-81
2021/07/20 01:37:16;;;;;;;7.13;4.25;;;20.70;59.00;;;;;;4975754;28;20031;-81
2021/07/20 01:39:45;;;;;;;5.75;4.05;;;20.70;59.70;;;;;;4976404;28;20027;-82
2021/07/20 01:42:13;;;;;;;6.40;4.13;;;20.70;59.10;;;;;;4959911;28;20433;-82
2021/07/20 01:44:39;;;;;;;6.00;3.92;;;20.70;59.80;;;;;;4975377;28;20079;-82
2021/07/20 01:47:05;;;;;;;6.40;4.22;;;20.70;59.20;;;;;;4959730;28;20035;-82
2021/07/20 01:49:32;;;;;;;6.82;4.20;;;20.60;59.10;;;;;;4959856;28;20403;-81
2021/07/20 01:52:06;;;;;;;6.70;4.30;;;20.60;59.20;;;;;;4975856;28;20117;-82
2021/07/20 01:54:34;;;;;;;5.57;3.78;;;20.60;59.30;;;;;;4975866;28;20034;-83
2021/07/20 01:57:00;;;;;;;6.75;4.00;;;20.50;59.30;;;;;;4975471;28;20033;-81
2021/07/20 01:59:47;;;;;;;6.60;4.38;;;20.50;59.30;;;;;;4977144;28;20046;-82
2021/07/20 02:10:42;;;;;;;7.00;4.63;;;20.40;60.00;;;;;;4975576;28;20035;-82
2021/07/20 02:13:16;;;;;;;5.53;3.80;;;20.40;59.50;;;;;;4959822;28;20037;-82
2021/07/20 02:15:55;;;;;;;6.05;3.60;;;20.30;59.50;;;;;;4960961;28;20035;-83
2021/07/20 02:18:29;;;;;;;6.28;3.80;;;20.30;59.50;;;;;;4975970;28;20484;-82
2021/07/20 02:21:05;;;;;;;6.00;3.78;;;20.30;59.60;;;;;;4959350;28;20030;-81
2021/07/20 02:23:52;;;;;;;6.35;4.35;;;20.30;59.70;;;;;;4976324;28;20105;-82
2021/07/20 02:26:21;;;;;;;7.15;4.55;;;20.20;59.60;;;;;;4959454;28;20035;-83
2021/07/20 02:28:51;;;;;;;6.47;4.00;;;20.20;59.70;;;;;;4959463;28;20046;-82
2021/07/20 02:31:19;;;;;;;7.45;4.35;;;20.20;59.70;;;;;;4975023;28;20464;-82
2021/07/20 02:33:46;;;;;;;6.53;4.43;;;20.20;59.80;;;;;;4974562;28;20452;-82
2021/07/20 02:36:14;;;;;;;6.43;4.10;;;20.10;59.80;;;;;;4974239;28;20542;-82
2021/07/20 02:38:41;;;;;;;6.22;4.38;;;20.10;59.80;;;;;;4958750;28;20035;-82
2021/07/20 02:41:12;;;;;;;6.40;4.13;;;20.10;59.80;;;;;;4958873;28;20047;-82
2021/07/20 02:43:46;;;;;;;7.07;4.10;;;20.10;59.80;;;;;;4959686;28;20047;-82
2021/07/20 02:46:12;;;;;;;6.35;3.95;;;20.00;59.90;;;;;;4974375;28;20118;-82
2021/07/20 02:48:42;;;;;;;6.18;4.13;;;20.00;59.90;;;;;;4959208;28;20069;-82
2021/07/20 02:51:14;;;;;;;7.15;4.30;;;20.00;59.90;;;;;;4974651;28;20042;-83
2021/07/20 02:53:45;;;;;;;6.43;4.10;;;20.00;59.90;;;;;;4959535;28;20030;-83
2021/07/20 02:56:15;;;;;;;6.13;3.88;;;20.00;59.90;;;;;;4959113;28;20078;-83
2021/07/20 02:58:51;;;;;;;5.82;4.00;;;19.90;59.90;;;;;;4960940;28;20452;-82
2021/07/20 03:01:26;;;;;;;7.88;4.28;;;19.90;60.00;;;;;;4975141;28;20034;-81
2021/07/20 03:03:53;;;;;;;6.30;4.25;;;19.90;60.00;;;;;;4958846;28;20070;-82
2021/07/20 03:06:25;;;;;;;6.82;4.35;;;19.80;60.00;;;;;;4974571;28;20360;-82
2021/07/20 03:08:56;;;;;;;6.13;3.88;;;19.80;60.00;;;;;;4957981;28;20035;-82
2021/07/20 03:11:43;;;;;;;6.63;4.32;;;19.80;60.10;;;;;;4958441;28;20550;-82
2021/07/20 03:14:13;;;;;;;6.00;4.07;;;19.80;60.00;;;;;;4958715;28;20057;-81
2021/07/20 03:16:50;;;;;;;6.25;4.03;;;19.70;60.10;;;;;;4958166;28;20033;-82
2021/07/20 03:19:19;;;;;;;6.35;4.18;;;19.70;60.10;;;;;;4957871;28;20031;-82
2021/07/20 03:21:49;;;;;;;5.97;4.00;;;19.70;60.30;;;;;;4957425;28;20081;-82
2021/07/20 03:24:22;;;;;;;6.07;3.83;;;19.70;60.20;;;;;;4958687;28;20035;-82
2021/07/20 03:26:52;;;;;;;5.95;3.75;;;19.70;60.20;;;;;;4973992;28;20038;-81
2021/07/20 03:29:21;;;;;;;5.60;3.75;;;19.70;60.20;;;;;;4957800;28;20514;-82
2021/07/20 03:31:47;;;;;;;6.25;3.95;;;19.60;60.20;;;;;;4973600;28;20117;-82
2021/07/20 03:34:14;;;;;;;6.35;3.83;;;19.60;60.30;;;;;;4975634;28;20035;-81
2021/07/20 03:36:43;;;;;;;5.43;3.72;;;19.60;60.30;;;;;;4973775;28;20031;-82
2021/07/20 03:39:10;;;;;;;5.53;3.65;;;19.50;60.20;;;;;;4957630;28;20440;-82
2021/07/20 03:41:37;;;;;;;5.93;3.80;;;19.50;60.30;;;;;;4957690;28;20046;-82
2021/07/20 03:44:05;;;;;;;6.18;4.18;;;19.50;60.30;;;;;;4975468;28;20034;-82
2021/07/20 03:46:33;;;;;;;6.38;4.35;;;19.50;60.30;;;;;;4958450;28;20034;-82
2021/07/20 03:48:59;;;;;;;6.78;4.07;;;19.50;60.40;;;;;;4974996;28;20550;-82
2021/07/20 03:51:34;;;;;;;6.43;3.92;;;19.40;60.40;;;;;;4974045;28;20491;-82
2021/07/20 03:54:02;;;;;;;6.45;4.38;;;19.40;60.40;;;;;;4974389;28;20416;-83
2021/07/20 03:56:30;;;;;;;6.40;3.85;;;19.40;60.50;;;;;;4973364;28;20050;-83
2021/07/20 03:58:59;;;;;;;7.07;4.50;;;19.40;60.40;;;;;;4973929;28;20056;-82
2021/07/20 04:01:31;;;;;;;6.85;4.47;;;19.40;60.50;;;;;;4974110;28;20030;-82
2021/07/20 04:03:58;;;;;;;6.32;4.05;;;19.30;60.40;;;;;;4973412;28;20446;-82
2021/07/20 04:06:43;;;;;;;6.38;4.28;;;19.30;60.50;;;;;;4973998;28;20118;-82
2021/07/20 04:09:28;;;;;;;6.00;3.92;;;19.30;60.50;;;;;;4963747;28;20447;-82
2021/07/20 04:12:13;;;;;;;6.00;3.78;;;19.30;60.50;;;;;;4963719;28;20034;-82
2021/07/20 04:14:59;;;;;;;5.68;3.80;;;19.30;60.60;;;;;;4954002;28;20034;-82
2021/07/20 04:17:33;;;;;;;6.20;4.20;;;19.20;60.60;;;;;;4961669;28;20035;-81
2021/07/20 04:20:00;;;;;;;5.90;3.78;;;19.20;60.60;;;;;;4977455;28;20034;-82
2021/07/20 04:22:29;;;;;;;6.32;4.00;;;19.20;60.70;;;;;;4977160;28;20050;-82
2021/07/20 04:24:56;;;;;;;7.05;4.57;;;19.20;60.70;;;;;;4977278;28;20031;-82
2021/07/20 04:27:30;;;;;;;4.80;3.20;;;19.20;60.80;;;;;;4977391;28;20030;-82
2021/07/20 04:29:56;;;;;;;6.95;3.67;;;19.10;60.70;;;;;;4961015;28;20035;-84
2021/07/20 04:32:23;;;;;;;6.40;4.30;;;19.10;60.90;;;;;;4961419;28;20030;-81
2021/07/20 04:34:51;;;;;;;6.00;3.67;;;19.10;60.80;;;;;;4977007;28;20118;-81
2021/07/20 04:37:20;;;;;;;6.43;4.18;;;19.10;60.90;;;;;;4945679;28;20027;-82
2021/07/20 04:39:54;;;;;;;6.10;4.20;;;19.10;60.90;;;;;;4961498;28;20046;-82
2021/07/20 04:42:21;;;;;;;6.90;4.15;;;19.00;60.90;;;;;;4961040;28;20031;-82
2021/07/20 04:44:48;;;;;;;6.40;4.10;;;19.00;60.90;;;;;;4977642;28;20027;-81
2021/07/20 04:47:47;;;;;;;5.50;3.58;;;19.00;60.90;;;;;;4946669;28;20043;-81
2021/07/20 04:50:31;;;;;;;6.00;3.90;;;19.00;60.90;;;;;;4947955;28;20121;-83
2021/07/20 04:53:03;;;;;;;5.90;3.70;;;19.00;60.90;;;;;;4961179;28;20416;-82
2021/07/20 04:55:31;;;;;;;5.63;3.63;;;18.90;61.00;;;;;;4978258;28;20031;-84
2021/07/20 04:58:01;;;;;;;5.53;3.80;;;19.00;61.10;;;;;;4977920;28;20061;-83
2021/07/20 05:00:27;;;;;;;6.38;4.20;;;18.90;61.10;;;;;;4960699;28;20047;-84
2021/07/20 05:02:56;;;;;;;6.40;4.07;;;18.90;61.10;;;;;;4976592;28;20034;-83
2021/07/20 05:05:24;;;;;;;5.80;3.80;;;18.90;61.10;;;;;;4960812;28;20387;-82
2021/07/20 05:07:56;;;;;;;5.65;3.67;;;18.90;61.10;;;;;;4961423;28;20058;-80
2021/07/20 05:10:23;;;;;;;6.00;3.78;;;18.90;61.10;;;;;;4960350;28;20527;-79
2021/07/20 05:13:26;;;;;;;5.32;3.60;;;18.90;61.80;;;;;;4962429;28;20063;-79
2021/07/20 05:15:55;;;;;;;5.20;3.33;;;18.90;61.10;;;;;;4959936;28;20031;-81
2021/07/20 05:18:23;;;;;;;5.60;3.63;;;18.90;61.20;;;;;;4959828;28;20034;-79
2021/07/20 05:20:53;;;;;;;5.55;3.85;;;18.80;61.20;;;;;;4975420;28;20479;-79
2021/07/20 05:23:20;;;;;;;6.30;3.78;;;18.90;61.30;;;;;;4977400;28;20177;-78
2021/07/20 05:25:59;;;;;;;5.20;3.55;;;18.90;61.30;;;;;;4976782;28;20027;-82
2021/07/20 05:28:27;;;;;;;5.63;3.67;;;18.80;61.40;;;;;;4976173;28;20122;-80
2021/07/20 05:30:56;;;;;;;5.70;3.70;;;18.90;61.30;;;;;;4975750;28;20030;-81
2021/07/20 05:33:22;;;;;;;5.68;3.47;;;18.80;61.30;;;;;;4975737;28;20034;-82
2021/07/20 05:36:01;;;;;;;5.88;3.85;;;18.80;61.30;;;;;;4960397;28;20023;-83
2021/07/20 05:38:28;;;;;;;5.60;3.25;;;18.80;61.30;;;;;;4959868;28;20031;-82
2021/07/20 05:41:13;;;;;;;4.88;3.40;;;18.80;61.30;;;;;;4977657;28;20049;-81
2021/07/20 05:43:41;;;;;;;5.05;3.45;;;18.80;61.40;;;;;;4959630;28;20039;-80
2021/07/20 05:46:07;;;;;;;5.60;3.45;;;18.80;61.40;;;;;;4959713;28;20023;-81
2021/07/20 05:48:33;;;;;;;5.50;3.38;;;18.80;61.40;;;;;;4975811;28;20038;-79
2021/07/20 05:51:05;;;;;;;5.30;2.92;;;18.80;61.40;;;;;;4959782;28;20112;-79
2021/07/20 05:53:37;;;;;;;5.18;3.42;;;18.80;61.40;;;;;;4960241;28;20054;-80
2021/07/20 05:56:30;;;;;;;5.43;3.30;;;18.90;61.50;;;;;;4976087;28;20046;-79
2021/07/20 05:59:19;;;;;;;4.63;2.78;;;18.80;61.40;;;;;;4959323;28;20106;-80
2021/07/20 06:01:47;;;;;;;6.15;3.25;;;18.80;61.50;;;;;;4959518;28;20035;-81
2021/07/20 06:04:16;;;;;;;4.75;3.05;;;18.80;61.40;;;;;;4960240;28;20407;-81
2021/07/20 06:06:43;;;;;;;4.30;2.85;;;18.80;61.50;;;;;;4975165;28;20484;-80
2021/07/20 06:09:09;;;;;;;4.50;3.03;;;18.80;61.50;;;;;;4959167;28;20031;-80
2021/07/20 06:11:36;;;;;;;4.82;3.05;;;18.80;61.50;;;;;;4959104;28;20039;-81
2021/07/20 06:14:03;;;;;;;5.22;3.38;;;18.90;61.60;;;;;;4958979;28;20031;-81
2021/07/20 06:16:30;;;;;;;4.30;2.88;;;18.90;61.50;;;;;;4974720;28;20087;-81
2021/07/20 06:18:58;;;;;;;4.95;3.33;;;18.90;61.60;;;;;;4975318;28;20195;-83
2021/07/20 06:21:25;;;;;;;5.05;3.22;;;18.90;61.60;;;;;;4959114;28;20043;-81
2021/07/20 06:23:53;;;;;;;5.20;3.45;;;18.90;61.60;;;;;;4974717;28;20055;-81
2021/07/20 06:26:22;;;;;;;4.70;3.10;;;18.90;61.50;;;;;;4959032;28;20431;-82
2021/07/20 06:28:51;;;;;;;4.75;3.00;;;18.90;61.60;;;;;;4959072;28;20026;-83
2021/07/20 06:31:18;;;;;;;5.03;2.97;;;18.90;61.50;;;;;;4958041;28;20073;-83
2021/07/20 06:33:45;;;;;;;5.65;3.53;;;18.90;61.50;;;;;;4958815;28;20042;-82
2021/07/20 06:36:19;;;;;;;5.10;3.25;;;18.90;61.50;;;;;;4975723;28;20035;-83
2021/07/20 06:38:45;;;;;;;4.65;2.88;;;19.00;61.70;;;;;;4974655;28;20038;-82
2021/07/20 06:41:12;;;;;;;4.43;2.90;;;19.00;61.60;;;;;;4958816;28;20023;-82
2021/07/20 06:43:41;;;;;;;4.38;2.88;;;19.00;61.60;;;;;;4942738;28;20035;-81
2021/07/20 06:46:08;;;;;;;4.90;2.90;;;19.00;61.60;;;;;;4958530;28;20065;-82
2021/07/20 06:48:39;;;;;;;4.40;2.95;;;19.00;61.60;;;;;;4975890;28;20041;-82
2021/07/20 06:51:05;;;;;;;3.70;2.60;;;19.00;61.70;;;;;;4974578;28;20030;-82
2021/07/20 06:53:34;;;;;;;5.22;3.20;;;19.00;61.60;;;;;;4959077;28;20096;-82
2021/07/20 06:56:03;;;;;;;5.80;3.40;;;19.00;62.20;;;;;;4975566;28;20474;-81
2021/07/20 06:58:31;;;;;;;4.35;2.90;;;19.10;61.60;;;;;;4958023;28;20114;-81
2021/07/20 07:01:03;;;;;;;4.88;3.22;;;19.10;61.60;;;;;;4958161;28;20035;-81
2021/07/20 07:03:40;;;;;;;4.57;2.83;;;19.10;61.60;;;;;;4959087;28;20483;-81
2021/07/20 07:06:09;;;;;;;4.93;3.03;;;19.10;61.60;;;;;;4957845;28;20491;-80
2021/07/20 07:08:36;;;;;;;4.35;3.10;;;19.10;61.50;;;;;;4975463;28;20019;-81
2021/07/20 07:11:03;;;;;;;4.47;2.95;;;19.10;61.50;;;;;;4958346;28;20035;-82
2021/07/20 07:13:29;;;;;;;3.97;2.75;;;19.20;61.60;;;;;;4957968;28;20062;-80
2021/07/20 07:15:57;;;;;;;4.70;3.03;;;19.20;61.60;;;;;;4974804;28;20031;-81
2021/07/20 07:18:24;;;;;;;5.15;3.10;;;19.20;61.60;;;;;;4957894;28;20031;-81
2021/07/20 07:20:53;;;;;;;4.75;3.03;;;19.20;61.60;;;;;;4957972;28;20125;-81
2021/07/20 07:23:20;;;;;;;4.72;2.83;;;19.20;61.60;;;;;;4973674;28;20078;-81
2021/07/20 07:25:52;;;;;;;4.55;3.08;;;19.20;61.50;;;;;;4957908;28;20023;-81
2021/07/20 07:28:20;;;;;;;4.13;2.60;;;19.30;61.50;;;;;;4957596;28;20475;-81
2021/07/20 07:30:51;;;;;;;5.32;3.33;;;19.30;61.50;;;;;;4958310;28;20064;-82
2021/07/20 07:33:18;;;;;;;5.47;3.17;;;19.40;61.50;;;;;;4957748;28;20035;-81
2021/07/20 07:35:45;;;;;;;5.15;3.17;;;19.30;61.30;;;;;;4958118;28;20392;-81
2021/07/20 07:38:25;;;;;;;;;;;;;;;;;;;;;
2021/07/20 07:40:55;;;;;;;5.97;3.45;;;19.40;61.30;;;;;;4975430;28;20034;-82
2021/07/20 07:43:25;;;;;;;5.35;3.10;;;19.40;61.20;;;;;;4958465;28;20093;-81
2021/07/20 07:45:56;;;;;;;7.57;3.45;;;19.40;61.20;;;;;;4974839;28;20018;-82
2021/07/20 07:48:24;;;;;;;5.63;3.30;;;19.40;61.20;;;;;;4974103;28;20118;-81
2021/07/20 07:50:53;;;;;;;5.10;3.33;;;19.50;61.20;;;;;;4960699;28;20121;-82
2021/07/20 07:53:19;;;;;;;5.13;3.38;;;19.60;61.20;;;;;;4960185;28;20045;-82
2021/07/20 07:55:45;;;;;;;5.53;3.38;;;19.60;61.10;;;;;;4957534;28;20391;-81
2021/07/20 07:58:12;;;;;;;5.07;3.20;;;19.70;61.00;;;;;;4973389;28;20034;-82
2021/07/20 08:00:40;;;;;;;5.05;3.45;;;19.70;61.00;;;;;;4973533;28;20038;-82
2021/07/20 08:03:08;;;;;;;5.03;3.17;;;19.80;60.90;;;;;;4957546;28;20053;-81
2021/07/20 08:05:34;;;;;;;5.47;3.47;;;19.80;60.80;;;;;;4957458;28;20093;-81
2021/07/20 08:08:01;;;;;;;5.18;2.83;;;19.90;60.70;;;;;;4958536;28;20135;-81
2021/07/20 08:10:30;;;;;;;4.38;3.10;;;19.90;60.60;;;;;;4943977;28;20039;-81
2021/07/20 08:12:58;;;;;;;5.97;3.78;;;20.00;60.60;;;;;;4983318;28;20486;-81
2021/07/20 08:15:24;;;;;;;5.15;3.50;;;20.00;60.40;;;;;;4992602;28;20026;-82
2021/07/20 08:17:52;;;;;;;5.05;3.30;;;20.10;60.40;;;;;;4996935;28;20022;-81
2021/07/20 08:20:19;;;;;;;5.53;3.40;;;20.10;60.30;;;;;;4979989;28;20102;-80
2021/07/20 08:22:47;;;;;;;5.13;3.38;;;20.20;60.30;;;;;;4985534;28;20046;-81
2021/07/20 08:25:23;;;;;;;5.35;3.22;;;20.30;60.20;;;;;;4960214;28;20086;-82
2021/07/20 08:27:56;;;;;;;5.07;3.40;;;20.30;60.20;;;;;;4974098;28;20034;-82
2021/07/20 08:30:23;;;;;;;6.03;3.67;;;20.40;60.10;;;;;;4957642;28;20035;-80
2021/07/20 08:32:56;;;;;;;5.22;3.42;;;20.50;60.00;;;;;;4957724;28;20031;-82
2021/07/20 08:35:29;;;;;;;5.63;3.60;;;20.50;60.00;;;;;;4957491;28;20397;-81
2021/07/20 08:37:59;;;;;;;5.10;3.03;;;20.60;60.00;;;;;;4957733;28;20035;-83
2021/07/20 08:40:49;;;;;;;5.40;3.33;;;20.70;59.80;;;;;;4973640;28;20062;-83
2021/07/20 08:43:38;;;;;;;5.53;3.58;;;20.70;59.90;;;;;;4974720;28;20031;-83
2021/07/20 08:46:16;;;;;;;5.55;3.38;;;20.80;59.70;;;;;;4957020;28;20503;-81
2021/07/20 08:49:07;;;;;;;5.72;3.63;;;20.90;59.70;;;;;;4941329;28;20490;-82
2021/07/20 08:51:50;;;;;;;6.43;3.85;;;21.00;59.60;;;;;;4973595;28;20030;-82
2021/07/20 08:54:26;;;;;;;4.72;3.13;;;21.10;59.50;;;;;;4973103;28;20061;-82
2021/07/20 08:56:56;;;;;;;5.35;3.30;;;21.10;59.40;;;;;;4960934;28;20031;-83
2021/07/20 08:59:31;;;;;;;5.43;3.47;;;21.20;59.30;;;;;;4976432;28;20471;-82
2021/07/20 09:02:15;;;;;;;5.53;3.63;;;21.30;59.30;;;;;;4976643;28;20058;-81
2021/07/20 09:04:45;;;;;;;4.63;3.03;;;21.40;59.30;;;;;;4976473;28;20034;-82
2021/07/20 09:07:12;;;;;;;5.22;3.35;;;21.50;59.20;;;;;;4960865;28;20114;-82
2021/07/20 09:09:40;;;;;;;5.15;3.25;;;21.50;59.00;;;;;;4959967;28;20034;-82
2021/07/20 09:12:17;;;;;;;4.47;3.13;;;21.60;59.00;;;;;;4960103;28;20027;-82
2021/07/20 09:15:07;;;;;;;5.70;3.38;;;21.70;59.00;;;;;;4960602;28;20416;-83
2021/07/20 09:17:39;;;;;;;5.43;3.35;;;21.80;58.90;;;;;;4977378;28;20116;-82
2021/07/20 09:20:08;;;;;;;5.05;2.97;;;21.90;58.80;;;;;;4976651;28;20042;-82
2021/07/20 09:22:44;;;;;;;5.72;3.70;;;22.00;58.70;;;;;;4959611;28;20173;-82
2021/07/20 09:25:36;;;;;;;4.15;2.95;;;22.00;58.60;;;;;;4975944;28;20058;-82
2021/07/20 09:28:17;;;;;;;4.93;3.25;;;22.10;58.70;;;;;;4961927;28;20077;-82
2021/07/20 09:30:46;;;;;;;5.32;3.20;;;22.20;59.10;;;;;;4976149;28;20587;-81
2021/07/20 09:33:32;;;;;;;5.30;3.55;;;22.30;58.50;;;;;;4977199;28;20106;-82
2021/07/20 09:36:03;;;;;;;5.45;3.50;;;22.40;58.50;;;;;;4977229;28;20026;-82
2021/07/20 09:38:29;;;;;;;5.00;3.20;;;22.50;58.40;;;;;;4959713;28;20054;-82
2021/07/20 09:41:26;;;;;;;5.45;3.40;;;22.50;58.20;;;;;;4976698;28;20117;-82
2021/07/20 09:44:00;;;;;;;5.03;3.08;;;22.70;58.30;;;;;;4976078;28;20022;-82
2021/07/20 09:46:35;;;;;;;5.85;3.28;;;22.70;58.10;;;;;;4959492;28;20476;-81
2021/07/20 09:49:13;;;;;;;5.30;3.38;;;22.80;58.00;;;;;;4976359;28;20047;-81
2021/07/20 09:52:14;;;;;;;5.10;3.22;;;22.90;57.90;;;;;;4975703;28;20027;-82
2021/07/20 09:55:08;;;;;;;5.38;3.35;;;23.00;57.90;;;;;;4968359;28;20043;-81
2021/07/20 09:57:56;;;;;;;4.70;3.10;;;23.10;57.80;;;;;;4975507;28;20031;-82
2021/07/20 10:00:27;;;;;;;5.22;3.33;;;23.10;57.60;;;;;;4975282;28;20031;-81
2021/07/20 10:03:10;;;;;;;4.95;3.45;;;23.20;57.40;;;;;;4959284;28;20078;-80
2021/07/20 10:06:03;;;;;;;5.30;3.30;;;23.30;57.50;;;;;;4976394;28;20062;-77
2021/07/20 10:08:35;;;;;;;5.53;3.30;;;23.40;57.40;;;;;;4976475;28;20027;-77
2021/07/20 10:11:28;;;;;;;5.53;3.72;;;23.40;57.20;;;;;;4975189;28;20027;-78
2021/07/20 10:14:30;;;;;;;5.28;3.58;;;23.50;57.20;;;;;;4976353;28;20058;-77
2021/07/20 10:17:20;;;;;;;6.07;3.80;;;23.50;57.20;;;;;;4959790;28;20057;-80
2021/07/20 10:19:49;;;;;;;5.10;3.30;;;23.60;57.10;;;;;;4974729;28;20043;-79
2021/07/20 10:22:21;;;;;;;5.00;3.17;;;23.70;57.00;;;;;;4975821;28;20161;-79
2021/07/20 10:24:58;;;;;;;5.18;3.65;;;23.70;57.00;;;;;;4958927;28;20062;-80
2021/07/20 10:27:45;;;;;;;5.35;3.55;;;23.80;57.00;;;;;;4975081;28;20125;-80
2021/07/20 10:30:13;;;;;;;5.38;3.63;;;23.80;57.00;;;;;;4958948;28;20027;-79
2021/07/20 10:32:48;;;;;;;5.70;3.45;;;23.90;56.90;;;;;;4958649;28;20460;-79
2021/07/20 10:35:36;;;;;;;5.78;3.53;;;23.90;56.90;;;;;;4975480;28;20034;-79
2021/07/20 10:38:04;;;;;;;5.80;3.78;;;24.00;56.80;;;;;;4975488;28;20041;-80
2021/07/20 10:40:33;;;;;;;5.40;3.38;;;24.10;56.70;;;;;;4959139;28;20031;-80
2021/07/20 10:43:17;;;;;;;5.00;3.55;;;24.20;56.70;;;;;;4974327;28;20487;-80
2021/07/20 10:45:46;;;;;;;4.80;3.22;;;24.20;56.60;;;;;;4974909;28;20462;-76
2021/07/20 10:48:19;;;;;;;5.85;3.72;;;24.30;56.50;;;;;;4975806;28;20031;-77
2021/07/20 10:50:51;;;;;;;5.68;3.33;;;24.40;56.40;;;;;;4976273;28;20037;-77
2021/07/20 10:53:26;;;;;;;5.65;3.67;;;24.40;56.30;;;;;;4959189;28;20077;-77
2021/07/20 10:56:16;;;;;;;5.53;3.50;;;24.50;56.20;;;;;;4975681;28;20066;-77
2021/07/20 10:58:49;;;;;;;4.93;3.33;;;24.60;56.20;;;;;;4974877;28;20242;-77
2021/07/20 11:01:26;;;;;;;4.85;3.28;;;24.70;56.00;;;;;;4975560;28;20027;-77
2021/07/20 11:04:07;;;;;;;4.82;3.15;;;24.80;56.00;;;;;;4958825;28;20432;-77
2021/07/20 11:06:37;;;;;;;5.07;3.30;;;24.80;55.90;;;;;;4975907;28;20118;-79
2021/07/20 11:09:12;;;;;;;5.18;3.58;;;24.90;55.70;;;;;;4974144;28;20031;-78
2021/07/20 11:11:44;;;;;;;4.90;3.30;;;24.90;55.60;;;;;;4957924;28;20109;-78
2021/07/20 11:14:11;;;;;;;5.07;3.50;;;25.10;55.60;;;;;;4958507;28;20089;-78
2021/07/20 11:16:39;;;;;;;5.15;3.60;;;25.10;55.50;;;;;;4973942;28;20062;-79
2021/07/20 11:19:07;;;;;;;5.53;3.47;;;25.20;55.50;;;;;;4957396;28;20106;-78
2021/07/20 11:21:33;;;;;;;5.53;3.33;;;25.20;55.30;;;;;;4957674;28;20023;-78
2021/07/20 11:24:00;;;;;;;6.35;3.97;;;25.30;55.20;;;;;;4975648;28;20051;-78
2021/07/20 11:26:29;;;;;;;5.28;3.47;;;25.30;55.20;;;;;;4973632;28;20472;-80
2021/07/20 11:28:56;;;;;;;4.80;3.33;;;25.40;55.10;;;;;;4974798;28;20031;-78
2021/07/20 11:31:42;;;;;;;5.53;3.72;;;25.40;55.00;;;;;;4974972;28;20030;-78
2021/07/20 11:34:13;;;;;;;6.55;3.65;;;25.50;55.10;;;;;;4974009;28;20090;-79
2021/07/20 11:36:42;;;;;;;5.15;3.47;;;25.50;55.00;;;;;;4974395;28;20081;-79
2021/07/20 11:39:14;;;;;;;5.75;3.95;;;25.60;55.00;;;;;;4957406;28;20118;-78
2021/07/20 11:42:13;;;;;;;6.30;3.88;;;25.60;55.00;;;;;;4974995;28;20050;-78
2021/07/20 11:44:50;;;;;;;5.15;3.22;;;25.60;55.00;;;;;;4957563;28;20038;-79
2021/07/20 11:47:26;;;;;;;4.65;3.17;;;25.70;55.00;;;;;;4957464;28;20035;-78
2021/07/20 11:50:03;;;;;;;5.20;3.35;;;25.70;55.00;;;;;;4958090;28;20031;-78
2021/07/20 11:52:52;;;;;;;5.03;3.47;;;25.70;55.10;;;;;;4973519;28;20383;-79
2021/07/20 11:55:28;;;;;;;5.07;3.63;;;25.70;55.10;;;;;;4973807;28;20379;-78
2021/07/20 11:58:22;;;;;;;5.00;3.30;;;25.80;55.10;;;;;;4973254;28;20471;-77
2021/07/20 12:01:01;;;;;;;5.22;3.47;;;25.80;55.20;;;;;;4973896;28;20034;-78
2021/07/20 12:03:52;;;;;;;4.38;2.97;;;25.80;55.00;;;;;;4957431;28;20037;-78
2021/07/20 12:06:30;;;;;;;6.35;3.70;;;25.90;55.10;;;;;;4957343;28;20031;-78
2021/07/20 12:09:08;;;;;;;6.13;4.00;;;25.90;55.10;;;;;;4974617;28;20031;-76
2021/07/20 12:11:40;;;;;;;5.47;3.80;;;25.90;55.10;;;;;;4957493;28;20471;-77
2021/07/20 12:14:07;;;;;;;6.68;3.80;;;25.90;54.90;;;;;;4974607;28;20110;-77
2021/07/20 12:16:46;;;;;;;5.38;3.75;;;25.90;54.90;;;;;;4974427;28;20031;-76
2021/07/20 12:19:14;;;;;;;5.47;3.63;;;26.00;54.90;;;;;;4973498;28;20034;-77
2021/07/20 12:21:42;;;;;;;5.35;3.63;;;26.00;54.80;;;;;;4957292;28;20361;-76
2021/07/20 12:24:12;;;;;;;5.32;3.78;;;26.00;54.80;;;;;;4975535;28;20600;-76
2021/07/20 12:26:39;;;;;;;5.85;4.05;;;26.00;54.80;;;;;;4974483;28;20027;-77
2021/07/20 12:29:09;;;;;;;5.65;3.95;;;26.00;54.80;;;;;;4972877;28;20034;-76
2021/07/20 12:31:37;;;;;;;5.75;4.07;;;26.10;54.80;;;;;;4978166;28;20081;-79
2021/07/20 12:34:04;;;;;;;5.60;4.15;;;26.10;54.80;;;;;;4967656;28;20027;-80
2021/07/20 12:36:30;;;;;;;6.25;4.22;;;26.10;54.70;;;;;;4964470;28;20125;-80
2021/07/20 12:39:15;;;;;;;5.97;4.13;;;26.10;54.60;;;;;;4978211;28;20379;-80
2021/07/20 12:41:49;;;;;;;5.95;3.97;;;26.10;54.60;;;;;;4978180;28;20031;-81
2021/07/20 12:44:16;;;;;;;6.43;3.97;;;26.10;54.50;;;;;;4960912;28;20027;-79
2021/07/20 12:46:42;;;;;;;5.25;3.53;;;26.10;54.40;;;;;;4960725;28;20055;-78
2021/07/20 12:49:13;;;;;;;6.28;3.92;;;26.10;54.40;;;;;;4977084;28;20043;-78
2021/07/20 12:51:50;;;;;;;6.30;3.85;;;26.10;54.40;;;;;;4977253;28;20039;-78
2021/07/20 12:54:40;;;;;;;5.47;4.00;;;26.10;54.30;;;;;;4978480;28;20423;-78
2021/07/20 12:57:07;;;;;;;5.60;3.97;;;26.20;54.40;;;;;;4976704;28;20412;-78
2021/07/20 12:59:40;;;;;;;5.65;3.97;;;26.20;54.30;;;;;;4960434;28;20039;-78
2021/07/20 13:02:12;;;;;;;5.40;3.75;;;26.20;54.30;;;;;;4978218;28;20523;-78
2021/07/20 13:04:42;;;;;;;6.35;4.35;;;26.20;54.30;;;;;;4977075;28;20042;-78
2021/07/20 13:07:09;;;;;;;5.78;4.03;;;26.20;54.30;;;;;;4960243;28;20031;-77
2021/07/20 13:09:36;;;;;;;6.13;4.00;;;26.20;54.30;;;;;;4960281;28;20030;-78
2021/07/20 13:12:03;;;;;;;6.22;4.68;;;26.20;54.20;;;;;;4960896;28;20035;-78
2021/07/20 13:14:32;;;;;;;5.97;4.10;;;26.20;54.20;;;;;;4960224;28;20031;-78
2021/07/20 13:17:00;;;;;;;6.00;4.20;;;26.20;54.20;;;;;;4959993;28;20032;-77
2021/07/20 13:19:26;;;;;;;5.95;4.20;;;26.20;54.20;;;;;;4976073;28;20039;-78
2021/07/20 13:21:52;;;;;;;5.90;4.47;;;26.20;54.20;;;;;;4977334;28;20038;-77